createdAt,value
2023-02-12T00:01:15.704Z,22.70
2023-02-12T00:03:43.301Z,23.05
2023-02-12T00:06:13.566Z,26.05
2023-02-12T00:08:42.997Z,21.98
2023-02-12T00:11:18.733Z,29.77
2023-02-12T00:13:46.443Z,22.83
2023-02-12T00:16:17.290Z,21.85
2023-02-12T00:18:45.198Z,24.40
2023-02-12T00:21:14.051Z,23.92
2023-02-12T00:23:41.695Z,23.38
2023-02-12T00:26:11.994Z,23.40
2023-02-12T00:28:44.289Z,23.25
2023-02-12T00:31:21.501Z,25.50
2023-02-12T00:33:49.124Z,27.42
2023-02-12T00:36:21.906Z,23.63
2023-02-12T00:38:51.418Z,26.73
2023-02-12T00:41:19.283Z,22.40
2023-02-12T00:43:47.352Z,23.95
2023-02-12T00:46:15.301Z,23.48
2023-02-12T00:48:44.419Z,22.65
2023-02-12T00:51:11.799Z,23.08
2023-02-12T00:53:39.245Z,21.73
2023-02-12T00:56:08.420Z,25.17
2023-02-12T00:58:35.773Z,22.80
2023-02-12T01:01:03.487Z,28.23
2023-02-12T01:03:30.798Z,28.80
2023-02-12T01:05:59.982Z,22.17
2023-02-12T01:08:27.525Z,28.92
2023-02-12T01:11:03.804Z,21.98
2023-02-12T01:13:32.370Z,22.92
2023-02-12T01:16:09.008Z,23.90
2023-02-12T01:18:38.018Z,22.20
2023-02-12T01:21:15.651Z,22.17
2023-02-12T01:23:44.264Z,22.50
2023-02-12T01:26:12.596Z,22.08
2023-02-12T01:28:42.261Z,21.75
2023-02-12T01:31:16.086Z,20.85
2023-02-12T01:33:44.077Z,22.48
2023-02-12T01:36:11.524Z,22.52
2023-02-12T01:38:38.843Z,20.55
2023-02-12T01:41:27.688Z,21.33
2023-02-12T01:44:08.528Z,22.92
2023-02-12T01:46:36.386Z,21.80
2023-02-12T01:49:07.670Z,22.65
2023-02-12T01:51:38.114Z,30.77
2023-02-12T01:54:08.320Z,31.45
2023-02-12T01:56:36.192Z,24.58
2023-02-12T01:59:03.918Z,36.13
2023-02-12T02:01:33.678Z,55.40
2023-02-12T02:04:05.301Z,54.63
2023-02-12T02:06:36.076Z,54.72
2023-02-12T02:09:06.185Z,53.33
2023-02-12T02:11:52.032Z,50.25
2023-02-12T02:14:34.580Z,40.97
2023-02-12T02:17:31.796Z,36.88
2023-02-12T02:20:20.956Z,34.95
2023-02-12T02:23:20.213Z,32.53
2023-02-12T02:25:56.697Z,31.13
2023-02-12T02:28:42.630Z,28.42
2023-02-12T02:31:24.214Z,30.23
2023-02-12T02:33:57.072Z,26.67
2023-02-12T02:36:59.719Z,24.13
2023-02-12T02:39:58.379Z,28.15
2023-02-12T02:42:37.303Z,24.98
2023-02-12T02:45:31.501Z,24.00
2023-02-12T02:48:32.353Z,29.23
2023-02-12T02:51:10.478Z,31.15
2023-02-12T02:54:01.621Z,24.17
2023-02-12T02:56:30.646Z,22.88
2023-02-12T02:59:11.916Z,23.90
2023-02-12T03:01:59.159Z,24.90
2023-02-12T03:04:35.444Z,23.58
2023-02-12T03:07:19.358Z,22.40
2023-02-12T03:09:56.741Z,21.42
2023-02-12T03:12:32.762Z,24.20
2023-02-12T03:15:31.651Z,22.52
2023-02-12T03:18:01.407Z,26.83
2023-02-12T03:20:36.188Z,27.00
2023-02-12T03:23:10.232Z,19.90
2023-02-12T03:25:49.904Z,28.98
2023-02-12T03:28:29.184Z,28.77
2023-02-12T03:31:01.231Z,27.80
2023-02-12T03:33:45.786Z,22.92
2023-02-12T03:36:55.218Z,26.45
2023-02-12T03:39:44.448Z,24.58
2023-02-12T03:42:25.554Z,26.95
2023-02-12T03:44:54.555Z,25.13
2023-02-12T03:47:36.551Z,33.88
2023-02-12T03:52:38.220Z,30.27
2023-02-12T03:55:06.330Z,26.20
2023-02-12T03:57:40.814Z,26.60
2023-02-12T04:00:18.728Z,24.90
2023-02-12T04:02:48.817Z,24.40
2023-02-12T04:05:19.173Z,25.08
2023-02-12T04:07:46.969Z,26.23
2023-02-12T04:10:14.961Z,26.42
2023-02-12T04:13:04.261Z,26.30
2023-02-12T04:15:40.855Z,27.02
2023-02-12T04:18:25.021Z,27.30
2023-02-12T04:21:02.307Z,28.00
2023-02-12T04:23:47.333Z,24.60
2023-02-12T04:26:22.234Z,26.13
2023-02-12T04:29:11.831Z,23.30
2023-02-12T04:32:06.525Z,22.75
2023-02-12T04:34:50.637Z,29.33
2023-02-12T04:37:35.573Z,23.05
2023-02-12T04:40:09.935Z,29.58
2023-02-12T04:42:48.982Z,24.65
2023-02-12T04:45:22.639Z,21.58
2023-02-12T04:47:50.005Z,20.98
2023-02-12T04:50:17.769Z,27.75
2023-02-12T04:52:45.445Z,25.48
2023-02-12T04:55:13.163Z,20.42
2023-02-12T04:57:40.510Z,21.15
2023-02-12T05:00:12.916Z,21.50
2023-02-12T05:02:40.602Z,19.58
2023-02-12T05:05:08.506Z,20.15
2023-02-12T05:07:35.990Z,22.10
2023-02-12T05:10:03.905Z,24.60
2023-02-12T05:12:31.307Z,22.55
2023-02-12T05:14:58.722Z,28.58
2023-02-12T05:17:26.170Z,22.83
2023-02-12T05:19:53.484Z,23.42
2023-02-12T05:22:20.859Z,22.27
2023-02-12T05:24:48.333Z,23.38
2023-02-12T05:27:15.707Z,21.92
2023-02-12T05:29:43.142Z,20.08
2023-02-12T05:32:10.548Z,29.70
2023-02-12T05:34:37.945Z,27.20
2023-02-12T05:37:05.312Z,26.67
2023-02-12T05:39:32.667Z,27.25
2023-02-12T05:41:59.954Z,23.77
2023-02-12T05:44:27.298Z,24.95
2023-02-12T05:46:54.619Z,25.02
2023-02-12T05:49:21.950Z,24.48
2023-02-12T05:51:49.991Z,27.67
2023-02-12T05:54:17.407Z,24.60
2023-02-12T05:56:47.362Z,24.17
2023-02-12T05:59:22.969Z,25.67
2023-02-12T06:01:51.883Z,24.20
2023-02-12T06:04:23.728Z,25.45
2023-02-12T06:06:52.856Z,25.33
2023-02-12T06:09:20.304Z,23.15
2023-02-12T06:11:47.619Z,23.48
2023-02-12T06:14:18.884Z,24.27
2023-02-12T06:16:48.639Z,25.05
2023-02-12T06:19:17.214Z,27.23
2023-02-12T06:21:44.565Z,25.70
2023-02-12T06:24:13.796Z,29.38
2023-02-12T06:26:41.561Z,28.40
2023-02-12T06:29:09.516Z,31.20
2023-02-12T06:31:37.601Z,33.78
2023-02-12T06:34:08.054Z,30.08
2023-02-12T06:36:38.069Z,31.02
2023-02-12T06:39:06.245Z,27.15
2023-02-12T06:41:34.038Z,29.13
2023-02-12T06:44:01.392Z,32.45
2023-02-12T06:46:29.594Z,30.70
2023-02-12T06:48:58.981Z,28.23
2023-02-12T06:51:27.562Z,30.85
2023-02-12T06:53:55.991Z,30.80
2023-02-12T06:56:24.762Z,33.25
2023-02-12T06:58:55.097Z,33.45
2023-02-12T07:01:25.397Z,28.65
2023-02-12T07:03:58.279Z,36.58
2023-02-12T07:06:27.052Z,34.38
2023-02-12T07:08:55.430Z,35.30
2023-02-12T07:11:25.199Z,30.10
2023-02-12T07:13:53.025Z,30.27
2023-02-12T07:16:20.859Z,29.58
2023-02-12T07:18:48.600Z,28.77
2023-02-12T07:21:17.295Z,29.10
2023-02-12T07:23:51.456Z,26.80
2023-02-12T07:26:21.243Z,24.52
2023-02-12T07:28:49.722Z,23.35
2023-02-12T07:31:23.470Z,19.40
2023-02-12T07:33:55.693Z,19.75
2023-02-12T07:36:24.324Z,18.85
2023-02-12T07:38:51.706Z,19.70
2023-02-12T07:41:22.402Z,18.50
2023-02-12T07:43:55.714Z,18.00
2023-02-12T07:46:37.394Z,23.13
2023-02-12T07:49:06.991Z,21.17
2023-02-12T07:51:35.526Z,21.42
2023-02-12T07:54:04.000Z,20.70
2023-02-12T07:56:35.255Z,21.58
2023-02-12T07:59:08.345Z,22.88
2023-02-12T08:01:38.308Z,22.10
2023-02-12T08:04:11.520Z,21.00
2023-02-12T08:06:41.587Z,22.15
2023-02-12T08:09:12.252Z,24.45
2023-02-12T08:11:40.996Z,22.02
2023-02-12T08:14:10.726Z,23.90
2023-02-12T08:16:40.012Z,19.52
2023-02-12T08:19:18.727Z,18.75
2023-02-12T08:21:54.898Z,22.00
2023-02-12T08:24:23.063Z,21.02
2023-02-12T08:26:51.399Z,25.00
2023-02-12T08:29:22.029Z,24.75
2023-02-12T08:31:51.121Z,24.88
2023-02-12T08:34:27.408Z,27.02
2023-02-12T08:36:56.600Z,26.55
2023-02-12T08:39:26.196Z,22.42
2023-02-12T08:42:00.004Z,23.27
2023-02-12T08:44:27.697Z,26.30
2023-02-12T08:46:58.246Z,22.73
2023-02-12T08:49:29.624Z,22.75
2023-02-12T08:51:59.148Z,22.88
2023-02-12T08:54:28.707Z,24.42
2023-02-12T08:56:58.151Z,23.77
2023-02-12T08:59:25.809Z,25.27
2023-02-12T09:01:54.447Z,25.38
2023-02-12T09:04:25.445Z,25.42
2023-02-12T09:06:53.148Z,24.48
2023-02-12T09:09:21.436Z,25.58
2023-02-12T09:11:49.698Z,25.33
2023-02-12T09:14:18.973Z,25.80
2023-02-12T09:16:46.379Z,27.13
2023-02-12T09:19:14.611Z,28.40
2023-02-12T09:21:42.220Z,29.63
2023-02-12T09:24:09.917Z,32.10
2023-02-12T09:26:39.214Z,32.38
2023-02-12T09:29:06.677Z,30.85
2023-02-12T09:31:34.205Z,31.27
2023-02-12T09:34:05.234Z,32.28
2023-02-12T09:36:33.635Z,33.00
2023-02-12T09:39:01.155Z,33.80
2023-02-12T09:41:46.998Z,34.00
2023-02-12T09:44:32.431Z,30.98
2023-02-12T09:47:03.671Z,28.85
2023-02-12T09:50:13.634Z,29.63
2023-02-12T09:52:41.698Z,29.70
2023-02-12T09:55:15.529Z,29.88
2023-02-12T09:57:44.310Z,28.88
2023-02-12T10:00:15.825Z,29.80
2023-02-12T10:02:43.141Z,30.15
2023-02-12T10:05:20.263Z,28.13
2023-02-12T10:08:08.456Z,28.85
2023-02-12T10:10:48.094Z,25.38
2023-02-12T10:13:15.576Z,26.98
2023-02-12T10:15:53.834Z,27.45
2023-02-12T10:18:42.558Z,26.95
2023-02-12T10:21:15.920Z,28.20
2023-02-12T10:24:08.555Z,27.33
2023-02-12T10:26:41.243Z,26.85
2023-02-12T10:29:14.780Z,27.05
2023-02-12T10:31:47.199Z,26.23
2023-02-12T10:34:32.527Z,26.35
2023-02-12T10:37:21.321Z,26.60
2023-02-12T10:39:52.252Z,26.35
2023-02-12T10:42:44.867Z,26.77
2023-02-12T10:45:18.268Z,26.70
2023-02-12T10:47:50.503Z,26.23
2023-02-12T10:50:53.030Z,25.80
2023-02-12T10:53:29.657Z,27.83
2023-02-12T10:56:27.400Z,28.95
2023-02-12T10:58:59.347Z,27.00
2023-02-12T11:01:39.421Z,28.52
2023-02-12T11:04:21.687Z,29.00
2023-02-12T11:09:45.638Z,25.77
2023-02-12T11:12:36.788Z,23.77
2023-02-12T11:15:25.579Z,25.33
2023-02-12T11:17:59.085Z,24.58
2023-02-12T11:20:42.126Z,22.98
2023-02-12T11:23:33.952Z,22.50
2023-02-12T11:26:05.913Z,21.05
2023-02-12T11:31:20.188Z,23.90
2023-02-12T11:33:58.797Z,22.98
2023-02-12T11:36:27.607Z,22.27
2023-02-12T11:38:58.337Z,24.70
2023-02-12T11:41:37.994Z,27.05
2023-02-12T11:44:28.730Z,28.33
2023-02-12T11:47:02.199Z,28.58
2023-02-12T11:49:39.005Z,31.73
2023-02-12T11:52:07.638Z,29.35
2023-02-12T11:54:41.912Z,27.27
2023-02-12T11:57:43.775Z,26.38
2023-02-12T12:00:19.731Z,31.15
2023-02-12T12:03:28.414Z,26.27
2023-02-12T12:06:28.288Z,26.63
2023-02-12T12:09:01.857Z,27.65
2023-02-12T12:11:37.154Z,27.40
2023-02-12T12:15:04.120Z,23.60
2023-02-12T12:18:38.665Z,24.48
2023-02-12T12:21:29.437Z,23.80
2023-02-12T12:24:04.237Z,25.08
2023-02-12T12:26:34.559Z,24.23
2023-02-12T12:29:23.225Z,26.35
2023-02-12T12:32:01.537Z,25.67
2023-02-12T12:34:32.446Z,27.08
2023-02-12T12:37:28.888Z,28.05
2023-02-12T12:39:59.103Z,29.33
2023-02-12T12:42:47.888Z,29.02
2023-02-12T12:45:39.374Z,29.58
2023-02-12T12:48:09.504Z,29.70
2023-02-12T12:51:01.545Z,30.73
2023-02-12T12:53:50.506Z,32.03
2023-02-12T12:56:20.482Z,32.78
2023-02-12T12:59:18.739Z,33.83
2023-02-12T13:02:10.195Z,31.52
2023-02-12T13:04:52.695Z,31.47
2023-02-12T13:07:32.713Z,30.38
2023-02-12T13:10:10.891Z,29.73
2023-02-12T13:12:51.137Z,29.30
2023-02-12T13:15:46.183Z,26.85
2023-02-12T13:18:28.428Z,24.65
2023-02-12T13:20:58.771Z,24.27
2023-02-12T13:23:50.605Z,19.90
2023-02-12T13:26:36.754Z,15.00
2023-02-12T13:29:18.611Z,12.15
2023-02-12T13:32:01.616Z,11.85
2023-02-12T13:34:31.467Z,11.68
2023-02-12T13:37:03.048Z,12.80
2023-02-12T13:39:39.540Z,11.63
2023-02-12T13:42:12.564Z,11.63
2023-02-12T13:45:01.876Z,12.00
2023-02-12T13:47:41.528Z,11.35
2023-02-12T13:50:32.813Z,10.75
2023-02-12T13:53:21.247Z,10.00
2023-02-12T13:56:02.087Z,10.57
2023-02-12T13:58:35.269Z,11.55
2023-02-12T14:01:08.554Z,11.10
2023-02-12T14:03:38.129Z,9.35
2023-02-12T14:06:10.269Z,9.95
2023-02-12T14:08:40.685Z,10.43
2023-02-12T14:11:12.232Z,9.32
2023-02-12T14:14:00.205Z,10.10
2023-02-12T14:16:30.223Z,10.15
2023-02-12T14:19:35.122Z,9.90
2023-02-12T14:22:28.714Z,11.00
2023-02-12T14:24:57.837Z,11.23
2023-02-12T14:27:48.722Z,11.77
2023-02-12T14:30:25.838Z,13.00
2023-02-12T14:32:58.109Z,12.80
2023-02-12T14:35:40.676Z,13.18
2023-02-12T14:38:20.039Z,13.82
2023-02-12T14:40:52.580Z,12.18
2023-02-12T14:43:55.700Z,12.15
2023-02-12T14:46:23.074Z,13.13
2023-02-12T14:48:56.398Z,14.43
2023-02-12T14:51:36.949Z,12.80
2023-02-12T14:54:13.694Z,13.23
2023-02-12T14:56:47.621Z,13.68
2023-02-12T14:59:25.560Z,14.38
2023-02-12T15:01:54.612Z,16.08
2023-02-12T15:04:27.662Z,14.18
2023-02-12T15:07:08.356Z,13.13
2023-02-12T15:09:52.663Z,14.90
2023-02-12T15:12:26.638Z,15.52
2023-02-12T15:15:11.212Z,16.33
2023-02-12T15:17:41.891Z,16.67
2023-02-12T15:20:23.789Z,16.67
2023-02-12T15:22:51.224Z,17.17
2023-02-12T15:25:27.244Z,16.45
2023-02-12T15:28:00.817Z,16.88
2023-02-12T15:30:32.418Z,16.90
2023-02-12T15:33:03.640Z,15.85
2023-02-12T15:35:36.830Z,16.40
2023-02-12T15:38:08.078Z,17.13
2023-02-12T15:40:35.528Z,16.25
2023-02-12T15:43:16.773Z,16.52
2023-02-12T15:45:51.570Z,16.67
2023-02-12T15:48:23.767Z,16.25
2023-02-12T15:51:18.045Z,17.92
2023-02-12T15:53:48.896Z,17.17
2023-02-12T15:56:22.921Z,18.23
2023-02-12T15:58:53.312Z,15.50
2023-02-12T16:01:24.033Z,16.90
2023-02-12T16:03:56.807Z,17.40
2023-02-12T16:06:27.012Z,14.82
2023-02-12T16:09:06.780Z,15.75
2023-02-12T16:11:35.524Z,15.25
2023-02-12T16:14:07.633Z,16.27
2023-02-12T16:19:32.932Z,15.13
2023-02-12T16:22:09.390Z,14.50
2023-02-12T16:24:49.489Z,14.80
2023-02-12T16:27:20.476Z,14.52
2023-02-12T16:29:53.964Z,14.60
2023-02-12T16:32:27.389Z,14.88
2023-02-12T16:35:04.876Z,15.63
2023-02-12T16:37:38.410Z,14.77
2023-02-12T16:40:12.064Z,13.65
2023-02-12T16:42:55.400Z,14.50
2023-02-12T16:45:28.802Z,15.32
2023-02-12T16:48:09.756Z,14.82
2023-02-12T16:50:45.022Z,15.80
2023-02-12T16:53:33.550Z,14.73
2023-02-12T16:56:02.695Z,15.65
2023-02-12T16:58:30.016Z,15.07
2023-02-12T17:00:59.417Z,14.43
2023-02-12T17:03:29.617Z,15.32
2023-02-12T17:05:57.383Z,14.88
2023-02-12T17:08:25.072Z,14.15
2023-02-12T17:10:55.445Z,15.52
2023-02-12T17:13:22.804Z,14.63
2023-02-12T17:15:56.307Z,13.95
2023-02-12T17:18:24.621Z,14.38
2023-02-12T17:20:56.859Z,13.43
2023-02-12T17:23:25.014Z,13.52
2023-02-12T17:25:54.001Z,13.32
2023-02-12T17:28:22.913Z,13.55
2023-02-12T17:30:50.518Z,13.40
2023-02-12T17:33:18.930Z,13.85
2023-02-12T17:35:46.557Z,12.93
2023-02-12T17:38:13.957Z,12.38
2023-02-12T17:40:41.284Z,11.98
2023-02-12T17:43:08.712Z,12.35
2023-02-12T17:45:40.438Z,11.90
2023-02-12T17:48:08.012Z,13.05
2023-02-12T17:50:35.423Z,12.43
2023-02-12T17:53:02.810Z,11.95
2023-02-12T17:55:31.402Z,12.07
2023-02-12T17:57:58.872Z,11.82
2023-02-12T18:00:26.305Z,11.80
2023-02-12T18:02:54.693Z,11.98
2023-02-12T18:05:22.089Z,11.60
2023-02-12T18:07:49.500Z,12.07
2023-02-12T18:10:16.959Z,12.00
2023-02-12T18:12:44.288Z,11.63
2023-02-12T18:15:11.868Z,11.65
2023-02-12T18:17:42.104Z,11.70
2023-02-12T18:20:11.632Z,12.77
2023-02-12T18:22:38.972Z,11.70
2023-02-12T18:25:06.832Z,12.20
2023-02-12T18:27:34.738Z,12.32
2023-02-12T18:30:02.613Z,11.30
2023-02-12T18:32:30.085Z,12.18
2023-02-12T18:34:57.384Z,11.48
2023-02-12T18:37:24.687Z,12.35
2023-02-12T18:39:52.114Z,13.38
2023-02-12T18:42:19.470Z,10.95
2023-02-12T18:44:46.868Z,11.00
2023-02-12T18:47:14.209Z,10.23
2023-02-12T18:49:41.549Z,10.68
2023-02-12T18:52:09.118Z,10.60
2023-02-12T18:54:36.504Z,10.00
2023-02-12T18:57:03.962Z,10.25
2023-02-12T18:59:31.576Z,10.43
2023-02-12T19:01:58.958Z,10.02
2023-02-12T19:04:27.842Z,9.68
2023-02-12T19:06:58.053Z,9.52
2023-02-12T19:09:26.956Z,9.40
2023-02-12T19:11:56.953Z,9.80
2023-02-12T19:14:26.667Z,9.80
2023-02-12T19:16:53.972Z,9.10
2023-02-12T19:19:24.765Z,8.90
2023-02-12T19:21:52.404Z,9.75
2023-02-12T19:24:20.222Z,9.32
2023-02-12T19:26:51.762Z,9.90
2023-02-12T19:29:19.117Z,9.02
2023-02-12T19:31:47.188Z,9.07
2023-02-12T19:34:19.620Z,8.95
2023-02-12T19:36:48.607Z,9.63
2023-02-12T19:39:22.042Z,9.90
2023-02-12T19:41:49.989Z,9.50
2023-02-12T19:44:26.117Z,10.10
2023-02-12T19:46:53.600Z,9.70
2023-02-12T19:49:24.137Z,10.82
2023-02-12T19:51:51.869Z,10.98
2023-02-12T19:54:21.536Z,10.07
2023-02-12T19:56:49.839Z,11.27
2023-02-12T19:59:20.541Z,10.50
2023-02-12T20:01:48.634Z,10.88
2023-02-12T20:04:19.710Z,10.68
2023-02-12T20:06:49.086Z,10.60
2023-02-12T20:09:19.108Z,10.23
2023-02-12T20:11:46.558Z,10.27
2023-02-12T20:14:14.604Z,10.55
2023-02-12T20:16:44.800Z,11.75
2023-02-12T20:19:19.704Z,11.65
2023-02-12T20:21:53.225Z,11.80
2023-02-12T20:24:32.512Z,12.40
2023-02-12T20:27:03.036Z,12.55
2023-02-12T20:29:30.616Z,12.13
2023-02-12T20:31:58.146Z,11.07
2023-02-12T20:34:25.737Z,12.38
2023-02-12T20:36:53.986Z,12.40
2023-02-12T20:39:22.325Z,12.32
2023-02-12T20:41:50.278Z,11.45
2023-02-12T20:44:21.090Z,12.13
2023-02-12T20:46:54.388Z,12.75
2023-02-12T20:49:25.291Z,11.63
2023-02-12T20:51:53.104Z,11.20
2023-02-12T20:54:21.054Z,11.40
2023-02-12T20:56:50.575Z,10.60
2023-02-12T20:59:21.816Z,10.82
2023-02-12T21:01:50.410Z,10.82
2023-02-12T21:04:19.193Z,11.15
2023-02-12T21:06:48.345Z,11.00
2023-02-12T21:09:16.721Z,11.07
2023-02-12T21:11:45.903Z,10.10
2023-02-12T21:14:23.682Z,10.15
2023-02-12T21:16:55.879Z,9.85
2023-02-12T21:19:24.933Z,10.02
2023-02-12T21:21:55.747Z,10.15
2023-02-12T21:24:25.314Z,9.63
2023-02-12T21:26:56.394Z,10.82
2023-02-12T21:29:26.044Z,9.47
2023-02-12T21:31:55.627Z,9.77
2023-02-12T21:34:23.781Z,11.05
2023-02-12T21:36:53.974Z,10.98
2023-02-12T21:39:24.879Z,10.15
2023-02-12T21:41:58.170Z,9.35
2023-02-12T21:44:26.163Z,10.18
2023-02-12T21:46:54.319Z,10.30
2023-02-12T21:49:25.187Z,10.52
2023-02-12T21:51:55.128Z,10.68
2023-02-12T21:54:23.200Z,9.85
2023-02-12T21:56:51.273Z,10.30
2023-02-12T21:59:19.049Z,10.05
2023-02-12T22:01:49.425Z,9.50
2023-02-12T22:04:18.165Z,10.60
2023-02-12T22:06:49.450Z,9.88
2023-02-12T22:09:19.238Z,8.85
2023-02-12T22:11:46.964Z,8.65
2023-02-12T22:14:16.700Z,8.35
2023-02-12T22:16:44.671Z,8.80
2023-02-12T22:19:12.287Z,8.60
2023-02-12T22:21:41.094Z,9.15
2023-02-12T22:24:11.519Z,8.45
2023-02-12T22:26:38.877Z,8.52
2023-02-12T22:29:08.748Z,8.88
2023-02-12T22:31:38.766Z,8.10
2023-02-12T22:34:10.330Z,8.70
2023-02-12T22:36:38.563Z,9.10
2023-02-12T22:39:06.533Z,8.90
2023-02-12T22:41:34.417Z,7.60
2023-02-12T22:44:05.036Z,7.53
2023-02-12T22:46:33.322Z,8.00
2023-02-12T22:49:00.910Z,7.53
2023-02-12T22:51:31.124Z,7.80
2023-02-12T22:53:58.883Z,7.43
2023-02-12T22:56:26.610Z,7.82
2023-02-12T22:58:58.397Z,7.63
2023-02-12T23:01:27.012Z,7.60
2023-02-12T23:03:55.300Z,6.85
2023-02-12T23:06:25.929Z,7.00
2023-02-12T23:08:56.743Z,7.13
2023-02-12T23:11:24.790Z,7.28
2023-02-12T23:13:52.654Z,6.85
2023-02-12T23:16:23.291Z,7.13
2023-02-12T23:18:57.936Z,7.28
2023-02-12T23:21:26.579Z,7.63
2023-02-12T23:23:54.368Z,7.40
2023-02-12T23:26:22.384Z,7.13
2023-02-12T23:28:49.688Z,7.40
2023-02-12T23:31:17.342Z,6.53
2023-02-12T23:33:45.438Z,6.97
2023-02-12T23:36:12.897Z,6.63
2023-02-12T23:38:40.189Z,6.47
2023-02-12T23:41:07.656Z,6.72
2023-02-12T23:43:34.944Z,6.30
2023-02-12T23:46:02.680Z,7.28
2023-02-12T23:48:29.998Z,7.25
2023-02-12T23:50:57.602Z,7.13
2023-02-12T23:53:27.025Z,7.32
2023-02-12T23:55:54.369Z,6.70
2023-02-12T23:58:21.649Z,6.35
